Time;durP1;ratioP1;P1;durP2;ratioP2;P2;SDS_P1;SDS_P2;PMS_P1;PMS_P2;Temp;Humidity;BMP_temperature;BMP_pressure;BME280_temperature;BME280_humidity;BME280_pressure;Samples;Min_cycle;Max_cycle;Signal;HPM_P1;HPM_P2
2022/08/30 00:01:01;;;;;;;3.58;2.85;;;;;;;15.55;100.00;101384.00;4979399;28;20135;-84
2022/08/30 00:03:33;;;;;;;3.17;2.85;;;;;;;15.51;100.00;101386.84;4973371;28;20673;-84
2022/08/30 00:06:00;;;;;;;3.28;2.97;;;;;;;15.56;100.00;101384.91;4983578;28;20069;-84
2022/08/30 00:08:27;;;;;;;4.18;3.03;;;;;;;15.57;100.00;101390.19;4982297;28;20054;-85
2022/08/30 00:10:54;;;;;;;3.80;3.17;;;;;;;15.55;100.00;101381.34;4992542;28;20496;-83
2022/08/30 00:13:22;;;;;;;7.53;3.50;;;;;;;15.58;100.00;101381.28;4979016;28;20050;-84
2022/08/30 00:15:49;;;;;;;3.08;2.70;;;;;;;15.53;100.00;101375.22;5009044;28;20054;-85
2022/08/30 00:18:17;;;;;;;3.92;3.17;;;;;;;15.53;100.00;101377.88;4999175;28;20043;-83
2022/08/30 00:20:45;;;;;;;3.97;3.58;;;;;;;15.52;100.00;101376.13;4994824;28;20057;-84
2022/08/30 00:23:12;;;;;;;4.13;2.90;;;;;;;15.46;100.00;101376.31;4997718;28;20052;-84
2022/08/30 00:25:40;;;;;;;3.50;3.08;;;;;;;15.51;100.00;101373.53;5011350;28;20061;-84
2022/08/30 00:28:06;;;;;;;3.38;3.08;;;;;;;15.47;100.00;101378.06;4997474;28;20523;-84
2022/08/30 00:30:33;;;;;;;4.13;3.30;;;;;;;15.53;100.00;101375.22;4994815;28;20105;-83
2022/08/30 00:33:00;;;;;;;4.45;2.83;;;;;;;15.45;100.00;101382.53;5012697;28;20070;-82
2022/08/30 00:35:27;;;;;;;3.22;2.92;;;;;;;15.51;100.00;101381.50;4995440;28;20253;-82
2022/08/30 00:37:54;;;;;;;4.03;3.45;;;;;;;15.50;100.00;101383.28;5011362;28;20129;-82
2022/08/30 00:40:21;;;;;;;3.78;3.47;;;;;;;15.51;100.00;101393.03;4978861;28;20153;-82
2022/08/30 00:42:55;;;;;;;4.60;3.20;;;;;;;15.50;100.00;101388.63;4995642;28;20097;-82
2022/08/30 00:45:31;;;;;;;4.07;3.67;;;;;;;15.52;100.00;101386.78;5000786;28;20133;-82
2022/08/30 00:47:58;;;;;;;3.85;3.42;;;;;;;15.47;100.00;101391.38;4993907;28;20384;-83
2022/08/30 00:50:30;;;;;;;3.22;2.92;;;;;;;15.44;100.00;101392.31;5007041;28;20038;-82
2022/08/30 00:53:03;;;;;;;3.53;2.85;;;;;;;15.43;100.00;101400.38;4989926;28;20042;-82
2022/08/30 00:55:30;;;;;;;4.45;3.17;;;;;;;15.38;100.00;101402.28;4978180;28;20091;-83
2022/08/30 00:57:59;;;;;;;3.50;2.92;;;;;;;15.44;100.00;101399.44;5006027;28;20056;-82
2022/08/30 01:00:28;;;;;;;3.17;2.88;;;;;;;15.41;100.00;101397.75;4994550;28;20034;-82
2022/08/30 01:02:55;;;;;;;3.42;3.00;;;;;;;15.35;100.00;101395.25;5002736;28;20050;-82
2022/08/30 01:05:22;;;;;;;3.95;3.33;;;;;;;15.40;100.00;101405.78;5008165;28;20048;-82
2022/08/30 01:07:50;;;;;;;7.95;3.47;;;;;;;15.38;100.00;101402.28;5023515;28;20038;-82
2022/08/30 01:10:16;;;;;;;3.92;3.33;;;;;;;15.34;100.00;101400.63;4978211;28;20125;-82
2022/08/30 01:12:43;;;;;;;3.45;3.15;;;;;;;15.31;100.00;101400.72;4976135;28;20038;-82
2022/08/30 01:15:13;;;;;;;3.15;2.85;;;;;;;15.30;100.00;101405.19;4993282;28;20045;-82
2022/08/30 01:17:44;;;;;;;4.47;3.33;;;;;;;15.32;100.00;101402.47;4973064;28;20103;-82
2022/08/30 01:20:14;;;;;;;3.63;3.08;;;;;;;15.28;100.00;101393.69;5006072;28;20038;-82
2022/08/30 01:22:48;;;;;;;3.85;3.17;;;;;;;15.24;100.00;101394.69;4991193;28;20042;-82
2022/08/30 01:25:21;;;;;;;4.47;3.28;;;;;;;15.29;100.00;101395.41;5009655;28;20042;-82
2022/08/30 01:27:51;;;;;;;4.85;3.45;;;;;;;15.30;100.00;101397.19;5007710;28;20096;-81
2022/08/30 01:30:18;;;;;;;4.70;3.33;;;;;;;15.28;100.00;101400.78;5009819;22;20054;-80
2022/08/30 01:32:46;;;;;;;3.67;3.30;;;;;;;15.33;100.00;101398.88;4953203;28;20043;-80
2022/08/30 01:35:15;;;;;;;3.88;3.50;;;;;;;15.35;100.00;101402.38;4953811;28;20034;-80
2022/08/30 01:37:43;;;;;;;3.97;3.58;;;;;;;15.31;100.00;101398.06;4953960;28;20048;-80
2022/08/30 01:40:12;;;;;;;3.97;3.53;;;;;;;15.31;100.00;101403.38;4954515;28;20113;-80
2022/08/30 01:42:38;;;;;;;4.20;3.80;;;;;;;15.35;100.00;101403.25;4968939;28;20049;-80
2022/08/30 01:45:07;;;;;;;4.43;3.15;;;;;;;15.36;100.00;101399.66;4957663;28;20047;-80
2022/08/30 01:47:34;;;;;;;4.65;3.33;;;;;;;15.32;100.00;101406.00;4953638;28;20047;-80
2022/08/30 01:50:00;;;;;;;4.90;3.28;;;;;;;15.33;100.00;101405.09;4979647;28;20065;-80
2022/08/30 01:52:27;;;;;;;3.95;3.42;;;;;;;15.33;100.00;101409.53;4941103;28;20130;-80
2022/08/30 01:54:54;;;;;;;4.38;3.58;;;;;;;15.32;100.00;101411.31;4973301;28;20049;-80
2022/08/30 01:57:22;;;;;;;3.97;3.60;;;;;;;15.35;100.00;101408.56;4956497;28;20058;-81
2022/08/30 01:59:49;;;;;;;4.32;3.78;;;;;;;15.34;100.00;101409.50;4981766;28;20038;-80
2022/08/30 02:02:19;;;;;;;4.05;3.20;;;;;;;15.40;100.00;101409.31;4954459;28;20042;-80
2022/08/30 02:04:46;;;;;;;4.05;3.65;;;;;;;15.35;100.00;101410.38;4957731;28;20123;-80
2022/08/30 02:07:12;;;;;;;4.65;3.83;;;;;;;15.39;100.00;101412.91;4971794;28;20039;-80
2022/08/30 02:09:43;;;;;;;4.68;3.78;;;;;;;15.41;100.00;101403.06;4958394;28;20416;-80
2022/08/30 02:12:11;;;;;;;4.80;3.33;;;;;;;15.39;100.00;101398.72;4968538;28;20093;-81
2022/08/30 02:14:38;;;;;;;4.80;3.50;;;;;;;15.38;100.00;101404.94;4973182;28;20053;-80
2022/08/30 02:17:07;;;;;;;4.97;3.72;;;;;;;15.37;100.00;101392.53;4960753;28;20512;-82
2022/08/30 02:19:34;;;;;;;4.45;3.90;;;;;;;15.33;100.00;101399.75;4962918;28;20030;-80
2022/08/30 02:22:01;;;;;;;4.10;3.20;;;;;;;15.35;100.00;101397.06;4955490;28;20415;-80
2022/08/30 02:24:28;;;;;;;3.92;3.53;;;;;;;15.32;100.00;101402.47;4977863;28;20142;-81
2022/08/30 02:26:55;;;;;;;4.00;3.60;;;;;;;15.28;100.00;101398.13;4956419;28;20684;-81
2022/08/30 02:29:22;;;;;;;4.10;3.22;;;;;;;15.38;100.00;101396.94;4941454;28;20042;-80
2022/08/30 02:31:49;;;;;;;4.40;3.13;;;;;;;15.47;100.00;101394.06;4961132;28;20106;-80
2022/08/30 02:34:16;;;;;;;4.70;3.50;;;;;;;15.42;100.00;101401.28;4962391;28;20047;-80
2022/08/30 02:36:44;;;;;;;3.88;3.35;;;;;;;15.36;100.00;101397.00;4975439;28;20042;-81
2022/08/30 02:39:12;;;;;;;4.18;3.72;;;;;;;15.35;100.00;101394.38;4965254;28;20504;-79
2022/08/30 02:41:39;;;;;;;3.80;3.40;;;;;;;15.38;100.00;101396.94;4961129;28;20047;-80
2022/08/30 02:44:06;;;;;;;4.72;4.00;;;;;;;15.31;100.00;101388.28;4966043;28;20039;-80
2022/08/30 02:46:33;;;;;;;4.10;3.70;;;;;;;15.38;100.00;101388.97;4945144;28;20400;-80
2022/08/30 02:49:00;;;;;;;4.32;3.42;;;;;;;15.33;100.00;101390.91;4979658;28;20066;-80
2022/08/30 02:51:47;;;;;;;4.03;3.50;;;;;;;15.35;100.00;101391.72;4947835;28;20137;-80
2022/08/30 02:54:18;;;;;;;4.32;3.78;;;;;;;15.43;100.00;101390.59;4946571;28;20051;-80
2022/08/30 02:56:46;;;;;;;5.72;3.55;;;;;;;15.41;100.00;101387.09;4960128;28;20492;-80
2022/08/30 02:59:14;;;;;;;3.75;3.35;;;;;;;15.43;100.00;101385.25;4955417;28;20489;-80
2022/08/30 03:01:41;;;;;;;4.97;3.60;;;;;;;15.43;100.00;101385.25;4993002;28;20542;-80
2022/08/30 03:04:08;;;;;;;4.13;3.72;;;;;;;15.37;100.00;101395.22;4943161;28;20047;-80
2022/08/30 03:06:35;;;;;;;4.32;3.80;;;;;;;15.39;100.00;101394.28;4978423;28;20568;-80
2022/08/30 03:09:02;;;;;;;4.75;3.25;;;;;;;15.39;100.00;101394.28;4964302;28;20133;-80
2022/08/30 03:11:29;;;;;;;5.05;3.92;;;;;;;15.38;100.00;101397.81;4971361;28;20063;-80
2022/08/30 03:13:56;;;;;;;3.60;3.30;;;;;;;15.47;100.00;101404.69;4960778;28;20582;-80
2022/08/30 03:16:23;;;;;;;3.85;3.45;;;;;;;15.46;100.00;101398.47;4966818;28;20046;-80
2022/08/30 03:18:49;;;;;;;3.70;3.30;;;;;;;15.44;100.00;101410.97;4985228;28;20074;-80
2022/08/30 03:21:16;;;;;;;4.05;3.60;;;;;;;15.45;100.00;101410.03;4967542;28;20106;-81
2022/08/30 03:23:43;;;;;;;4.30;3.90;;;;;;;15.52;100.00;101393.91;4968597;28;20046;-80
2022/08/30 03:26:13;;;;;;;3.90;3.47;;;;;;;15.47;100.00;101402.91;4983937;28;20054;-81
2022/08/30 03:28:41;;;;;;;4.43;3.35;;;;;;;15.52;100.00;101409.88;4970256;28;20046;-80
2022/08/30 03:31:08;;;;;;;5.35;3.80;;;;;;;15.50;100.00;101407.25;4950676;28;20042;-80
2022/08/30 03:33:35;;;;;;;4.10;3.05;;;;;;;15.48;100.00;101402.00;4986438;28;20066;-80
2022/08/30 03:36:05;;;;;;;3.60;3.30;;;;;;;15.51;100.00;101406.34;4983266;28;20034;-80
2022/08/30 03:38:32;;;;;;;4.15;3.75;;;;;;;15.53;100.00;101408.97;4969517;28;20097;-81
2022/08/30 03:40:58;;;;;;;3.85;3.47;;;;;;;15.55;100.00;101409.78;4984265;28;20129;-81
2022/08/30 03:43:25;;;;;;;4.30;3.30;;;;;;;15.60;100.00;101411.41;4970183;28;20070;-81
2022/08/30 03:45:52;;;;;;;4.00;3.33;;;;;;;15.62;100.00;101396.28;4965987;28;20054;-81
2022/08/30 03:48:19;;;;;;;3.75;3.35;;;;;;;15.57;100.00;101403.50;4970442;28;20133;-81
2022/08/30 03:50:46;;;;;;;4.70;4.00;;;;;;;15.57;100.00;101411.50;4967240;28;20046;-81
2022/08/30 03:53:12;;;;;;;4.45;3.45;;;;;;;15.56;100.00;101416.88;4981899;28;20074;-81
2022/08/30 03:55:39;;;;;;;3.97;3.42;;;;;;;15.62;100.00;101414.03;4967611;28;20133;-81
2022/08/30 03:58:09;;;;;;;3.38;3.08;;;;;;;15.60;100.00;101421.19;4969973;28;20115;-81
2022/08/30 04:00:44;;;;;;;4.10;3.30;;;;;;;15.61;100.00;101412.31;4954478;28;20030;-81
2022/08/30 04:03:11;;;;;;;3.53;3.22;;;;;;;15.67;100.00;101414.78;4983419;28;20653;-80
2022/08/30 04:05:37;;;;;;;4.82;3.60;;;;;;;15.72;100.00;101416.41;4979984;28;20046;-81
2022/08/30 04:08:05;;;;;;;4.40;3.28;;;;;;;15.59;100.00;101417.66;4965095;28;20555;-81
2022/08/30 04:10:31;;;;;;;3.88;2.90;;;;;;;15.60;100.00;101426.50;4949802;28;20039;-81
2022/08/30 04:12:58;;;;;;;3.58;3.00;;;;;;;15.64;100.00;101415.78;4977107;28;20038;-80
2022/08/30 04:15:25;;;;;;;3.78;2.80;;;;;;;15.61;100.00;101420.28;4960109;28;20034;-80
2022/08/30 04:17:53;;;;;;;2.90;2.40;;;;;;;15.56;100.00;101423.06;4975618;28;20070;-80
2022/08/30 04:20:20;;;;;;;4.70;2.65;;;;;;;15.57;100.00;101424.81;4959419;28;20041;-80
2022/08/30 04:22:47;;;;;;;2.28;2.08;;;;;;;15.69;100.00;101421.81;4960124;28;20047;-80
2022/08/30 04:25:13;;;;;;;2.53;2.33;;;;;;;15.58;100.00;101423.03;4960371;28;20069;-80
2022/08/30 04:27:42;;;;;;;2.63;2.20;;;;;;;15.56;100.00;101422.22;4960431;28;20130;-80
2022/08/30 04:30:10;;;;;;;2.50;2.20;;;;;;;15.62;100.00;101422.03;4960315;28;20404;-80
2022/08/30 04:32:39;;;;;;;2.95;2.45;;;;;;;15.63;100.00;101429.09;4953523;28;20046;-80
2022/08/30 04:35:06;;;;;;;2.20;2.00;;;;;;;15.68;100.00;101430.72;4946062;29;20046;-80
2022/08/30 04:37:32;;;;;;;3.65;2.15;;;;;;;15.64;100.00;101441.53;4970180;28;20059;-80
2022/08/30 04:39:59;;;;;;;2.65;2.38;;;;;;;15.58;100.00;101437.22;4961101;28;20068;-80
2022/08/30 04:42:30;;;;;;;3.80;2.15;;;;;;;15.66;100.00;101437.91;4991727;28;20055;-80
2022/08/30 04:44:59;;;;;;;2.20;2.00;;;;;;;15.61;100.00;101438.94;4959919;28;20667;-80
2022/08/30 04:47:25;;;;;;;3.28;1.80;;;;;;;15.60;100.00;101443.38;4956502;28;20069;-80
2022/08/30 04:49:52;;;;;;;3.80;1.80;;;;;;;15.65;100.00;101445.94;4941351;29;20142;-79
2022/08/30 04:52:19;;;;;;;3.30;1.90;;;;;;;15.67;100.00;101452.09;4949931;29;20560;-80
2022/08/30 04:54:46;;;;;;;2.35;1.90;;;;;;;15.64;100.00;101446.88;4957410;28;20053;-80
2022/08/30 04:57:12;;;;;;;3.38;2.00;;;;;;;15.68;100.00;101452.03;4955012;28;20106;-80
2022/08/30 04:59:39;;;;;;;2.75;1.73;;;;;;;15.70;100.00;101452.88;4954990;28;20058;-80
2022/08/30 05:02:06;;;;;;;2.40;1.60;;;;;;;15.70;100.00;101457.31;4957206;28;20062;-80
2022/08/30 05:04:33;;;;;;;1.98;1.80;;;;;;;15.69;100.00;101456.44;4960498;28;20051;-81
2022/08/30 05:07:00;;;;;;;1.73;1.55;;;;;;;15.74;100.00;101462.53;4956014;28;20045;-81
2022/08/30 05:09:26;;;;;;;1.48;1.30;;;;;;;15.77;100.00;101459.75;4971071;28;20510;-83
2022/08/30 05:11:53;;;;;;;1.85;1.50;;;;;;;15.76;100.00;101455.34;4945808;28;20066;-82
2022/08/30 05:14:20;;;;;;;1.50;1.30;;;;;;;15.74;100.00;101462.53;4968961;28;20058;-83
2022/08/30 05:16:47;;;;;;;2.30;1.63;;;;;;;15.83;100.00;101465.84;4937818;28;20125;-82
2022/08/30 05:19:13;;;;;;;1.65;1.40;;;;;;;15.80;100.00;101471.25;4947527;28;20411;-83
2022/08/30 05:21:40;;;;;;;1.60;1.48;;;;;;;15.87;100.00;101464.81;4967000;28;20069;-83
2022/08/30 05:24:07;;;;;;;1.48;1.30;;;;;;;15.87;100.00;101470.16;4970256;28;20042;-83
2022/08/30 05:26:36;;;;;;;1.33;1.05;;;;;;;15.80;100.00;101473.91;4952103;28;20050;-82
2022/08/30 05:29:03;;;;;;;2.13;1.40;;;;;;;15.79;100.00;101477.50;4943357;28;20070;-84
2022/08/30 05:31:32;;;;;;;3.00;1.35;;;;;;;15.74;100.00;101478.50;4935450;29;20039;-83
2022/08/30 05:34:00;;;;;;;1.30;1.20;;;;;;;15.76;100.00;101482.00;4955284;28;20102;-84
2022/08/30 05:36:28;;;;;;;2.80;1.60;;;;;;;15.91;100.00;101478.03;4954135;28;20500;-83
2022/08/30 05:38:55;;;;;;;1.88;1.30;;;;;;;15.99;100.00;101480.47;4939738;28;20050;-83
2022/08/30 05:41:23;;;;;;;0.95;0.90;;;;;;;15.80;100.00;101480.09;4971095;28;20039;-83
2022/08/30 05:43:54;;;;;;;0.75;0.75;;;;;;;15.86;100.00;101490.59;4969524;28;20051;-83
2022/08/30 05:46:21;;;;;;;1.08;0.88;;;;;;;15.69;100.00;101487.53;4969775;28;20056;-84
2022/08/30 05:48:49;;;;;;;1.10;0.90;;;;;;;15.68;100.00;101488.47;4954942;28;20051;-84
2022/08/30 05:51:18;;;;;;;1.08;0.88;;;;;;;15.57;100.00;101477.22;4969981;28;20051;-82
2022/08/30 05:53:45;;;;;;;0.95;0.85;;;;;;;15.52;100.00;101487.09;4955703;28;20061;-83
2022/08/30 05:56:14;;;;;;;1.55;0.90;;;;;;;15.50;100.00;101487.16;4969584;28;20053;-83
2022/08/30 05:58:42;;;;;;;2.03;1.00;;;;;;;15.51;100.00;101488.91;4970594;28;20058;-84
2022/08/30 06:01:25;;;;;;;0.90;0.80;;;;;;;15.52;100.00;101482.66;4945448;29;20420;-83
2022/08/30 06:03:54;;;;;;;1.00;0.98;;;;;;;15.56;100.00;101481.66;4942053;28;20054;-83
2022/08/30 06:06:23;;;;;;;1.20;1.10;;;;;;;15.60;100.00;101478.00;4960998;28;20457;-83
2022/08/30 06:08:51;;;;;;;1.73;0.80;;;;;;;15.69;100.00;101477.75;4937397;28;20047;-83
2022/08/30 06:11:21;;;;;;;1.45;1.10;;;;;;;15.82;100.00;101478.28;4953273;28;20404;-83
2022/08/30 06:13:48;;;;;;;1.20;1.00;;;;;;;16.03;100.00;101476.78;4970212;28;20685;-84
2022/08/30 06:16:17;;;;;;;1.27;0.90;;;;;;;15.99;100.00;101477.78;4952034;28;20424;-83
2022/08/30 06:18:44;;;;;;;0.93;0.82;;;;;;;16.06;100.00;101479.38;4986844;28;20097;-83
2022/08/30 06:21:19;;;;;;;1.27;0.82;;;;;;;16.05;100.00;101474.94;4968746;28;20050;-83
2022/08/30 06:23:46;;;;;;;1.50;1.00;;;;;;;16.04;100.00;101484.72;4971039;28;20159;-84
2022/08/30 06:26:13;;;;;;;1.27;0.90;;;;;;;16.04;100.00;101481.19;4953129;28;20054;-83
2022/08/30 06:28:39;;;;;;;1.15;1.00;;;;;;;16.09;100.00;101492.59;4954642;28;20550;-84
2022/08/30 06:31:07;;;;;;;0.70;0.70;;;;;;;16.09;100.00;101494.38;4952917;28;20680;-81
2022/08/30 06:33:35;;;;;;;0.80;0.77;;;;;;;16.07;100.00;101489.09;4954430;28;20134;-81
2022/08/30 06:36:14;;;;;;;2.17;1.20;;;;;;;16.20;100.00;101489.59;4934096;29;20643;-82
2022/08/30 06:38:41;;;;;;;0.80;0.70;;;;;;;16.21;100.00;101492.19;4939884;28;20518;-83
2022/08/30 06:41:11;;;;;;;1.33;1.00;;;;;;;16.22;100.00;101495.75;4969507;28;20051;-82
2022/08/30 06:43:37;;;;;;;1.83;0.73;;;;;;;16.30;100.00;101499.03;4955165;28;20046;-82
2022/08/30 06:46:08;;;;;;;0.80;0.80;;;;;;;16.36;100.00;101495.31;4953163;28;20046;-82
2022/08/30 06:48:35;;;;;;;0.95;0.90;;;;;;;16.39;100.00;101492.56;4955439;28;20049;-81
2022/08/30 06:51:02;;;;;;;0.70;0.70;;;;;;;16.46;100.00;101497.66;4957344;28;20045;-81
2022/08/30 06:53:29;;;;;;;1.30;0.82;;;;;;;16.54;100.00;101500.94;4959199;28;20125;-83
2022/08/30 06:55:59;;;;;;;1.02;0.90;;;;;;;16.60;100.00;101497.22;4972586;28;20059;-82
2022/08/30 06:58:27;;;;;;;0.70;0.70;;;;;;;16.70;100.00;101495.16;4949998;28;20046;-83
2022/08/30 07:00:54;;;;;;;1.73;1.00;;;;;;;16.80;100.00;101497.47;4946747;28;20043;-84
2022/08/30 07:03:21;;;;;;;0.93;0.77;;;;;;;16.82;100.00;101495.66;4960570;28;20138;-84
2022/08/30 07:05:48;;;;;;;1.05;0.85;;;;;;;16.85;100.00;101500.88;4956172;28;20431;-83
2022/08/30 07:08:16;;;;;;;3.20;1.25;;;;;;;17.06;100.00;101499.25;4974562;28;20047;-83
2022/08/30 07:10:44;;;;;;;1.40;0.95;;;;;;;17.04;100.00;101506.47;4940202;28;20042;-84
2022/08/30 07:13:11;;;;;;;1.55;0.95;;;;;;;17.15;100.00;101511.44;4941463;28;20134;-84
2022/08/30 07:15:41;;;;;;;0.60;0.60;;;;;;;17.23;100.00;101506.69;4939683;28;20038;-84
2022/08/30 07:20:58;;;;;;;1.02;0.82;;;;;;;17.24;100.00;101512.94;4953145;29;20047;-84
2022/08/30 07:23:24;;;;;;;1.08;0.80;;;;;;;17.51;100.00;101508.41;4929362;28;20416;-83
2022/08/30 07:25:51;;;;;;;0.80;0.80;;;;;;;17.45;100.00;101509.50;4970701;28;20047;-84
2022/08/30 07:28:18;;;;;;;0.90;0.80;;;;;;;17.45;100.00;101515.72;4972330;28;20050;-84
2022/08/30 07:30:44;;;;;;;0.95;0.80;;;;;;;17.32;100.00;101522.44;4956656;28;20050;-83
2022/08/30 07:33:11;;;;;;;0.60;0.60;;;;;;;16.91;100.00;101523.81;4974174;28;20054;-83
2022/08/30 07:35:38;;;;;;;1.52;0.80;;;;;;;17.14;100.00;101531.03;5053136;23;20047;-83
2022/08/30 07:38:05;;;;;;;1.00;0.90;;;;;;;17.29;100.00;101525.19;4962733;28;20046;-84
2022/08/30 07:40:31;;;;;;;1.23;0.98;;;;;;;17.51;100.00;101524.44;4968854;28;20054;-83
2022/08/30 07:43:01;;;;;;;0.82;0.80;;;;;;;17.66;100.00;101531.94;4957325;28;20046;-82
2022/08/30 07:45:27;;;;;;;0.73;0.70;;;;;;;17.75;100.00;101531.63;4988558;28;20418;-82
2022/08/30 07:47:54;;;;;;;1.77;0.80;;;;;;;17.78;100.00;101530.63;4989023;28;20503;-83
2022/08/30 07:50:21;;;;;;;1.35;1.00;;;;;;;17.93;100.00;101525.59;4973494;28;20049;-81
2022/08/30 07:52:47;;;;;;;1.15;0.90;;;;;;;18.01;100.00;101527.97;4956743;28;20046;-83
2022/08/30 07:55:15;;;;;;;1.35;1.05;;;;;;;18.13;100.00;101522.16;4984821;28;20039;-82
2022/08/30 07:57:42;;;;;;;1.23;1.10;;;;;;;18.14;100.00;101526.56;4975447;28;20051;-83
2022/08/30 08:00:09;;;;;;;1.30;1.10;;;;;;;18.05;100.00;101531.41;4974458;28;20038;-83
2022/08/30 08:02:36;;;;;;;3.03;1.17;;;;;;;18.05;100.00;101534.06;4972006;28;20034;-83
2022/08/30 08:05:04;;;;;;;1.67;1.13;;;;;;;18.36;100.00;101536.47;4974552;28;20042;-83
2022/08/30 08:07:31;;;;;;;1.75;1.45;;;;;;;18.52;100.00;101534.94;4960327;28;20415;-83
2022/08/30 08:09:57;;;;;;;3.50;1.40;;;;;;;18.48;100.00;101536.84;4966756;28;20043;-82
2022/08/30 08:12:24;;;;;;;1.50;1.30;;;;;;;18.46;100.00;101540.50;4953060;28;20038;-83
2022/08/30 08:14:51;;;;;;;2.38;1.70;;;;;;;18.50;100.00;101542.16;4959496;28;20411;-83
2022/08/30 08:17:18;;;;;;;3.15;1.48;;;;;;;18.42;100.00;101539.78;4975690;28;20072;-85
2022/08/30 08:19:44;;;;;;;2.88;1.50;;;;;;;18.42;100.00;101530.88;4966011;28;20121;-84
2022/08/30 08:22:11;;;;;;;2.22;2.03;;;;;;;18.31;100.00;101536.63;4965577;28;20038;-80
2022/08/30 08:24:47;;;;;;;1.75;1.65;;;;;;;18.46;100.00;101537.84;4993047;28;20042;-80
2022/08/30 08:27:14;;;;;;;1.90;1.60;;;;;;;18.40;100.00;101541.63;4975489;28;20053;-82
2022/08/30 08:29:41;;;;;;;1.55;1.42;;;;;;;18.32;100.00;101543.72;4993304;28;20049;-81
2022/08/30 08:32:07;;;;;;;2.10;1.90;;;;;;;18.48;100.00;101544.00;4966415;28;20495;-79
2022/08/30 08:34:34;;;;;;;2.72;1.75;;;;;;;18.47;100.00;101540.44;4973664;28;20483;-79
2022/08/30 08:37:01;;;;;;;2.92;1.40;;;;;;;18.65;100.00;101543.31;4991542;28;20070;-80
2022/08/30 08:39:28;;;;;;;2.22;1.58;;;;;;;18.80;100.00;101551.66;4978096;28;20451;-82
2022/08/30 08:42:15;;;;;;;2.15;1.95;;;;;;;19.10;100.00;101546.84;4956712;28;20046;-81
2022/08/30 08:45:08;;;;;;;1.77;1.60;;;;;;;19.02;100.00;101556.16;4973516;28;20046;-82
2022/08/30 08:47:41;;;;;;;2.15;1.70;;;;;;;19.31;100.00;101549.56;4984688;28;20408;-78
2022/08/30 08:50:14;;;;;;;2.05;1.50;;;;;;;19.53;100.00;101553.06;4986121;28;20050;-80
2022/08/30 08:55:56;;;;;;;2.35;1.80;;;;;;;19.71;100.00;101556.78;4987678;28;20044;-80
2022/08/30 08:58:28;;;;;;;1.98;1.75;;;;;;;19.82;100.00;101548.25;4974834;28;20040;-79
2022/08/30 09:00:56;;;;;;;2.75;1.85;;;;;;;19.82;100.00;101548.25;4970272;28;20046;-79
2022/08/30 09:03:25;;;;;;;1.98;1.77;;;;;;;19.53;100.00;101552.19;4988729;28;20042;-82
2022/08/30 09:05:52;;;;;;;1.85;1.67;;;;;;;19.82;100.00;101551.78;4980459;28;20051;-80
2022/08/30 09:08:20;;;;;;;1.95;1.75;;;;;;;19.91;100.00;101553.19;4988225;28;20069;-83
2022/08/30 09:11:02;;;;;;;2.25;1.55;;;;;;;19.85;100.00;101554.34;4977850;28;20046;-82
2022/08/30 09:13:29;;;;;;;2.60;1.50;;;;;;;19.94;100.00;101555.75;4995021;28;20046;-83
2022/08/30 09:15:57;;;;;;;2.28;1.63;;;;;;;20.05;100.00;101560.63;4958707;28;20070;-85
2022/08/30 09:18:52;;;;;;;1.98;1.50;;;;;;;20.25;94.86;101569.47;4989145;28;20061;-84
2022/08/30 09:21:23;;;;;;;4.80;2.10;;;;;;;20.40;97.68;101559.84;4959358;28;20046;-83
2022/08/30 09:23:56;;;;;;;1.85;1.63;;;;;;;20.24;98.00;101572.25;4952483;28;20802;-84
2022/08/30 09:26:36;;;;;;;1.75;1.63;;;;;;;20.15;99.46;101559.25;4962776;28;20039;-83
2022/08/30 09:29:04;;;;;;;3.33;1.40;;;;;;;20.28;90.10;101556.88;4965264;28;20039;-84
2022/08/30 09:31:45;;;;;;;1.70;1.35;;;;;;;19.86;96.43;101560.59;4950570;28;20042;-84
2022/08/30 09:34:17;;;;;;;1.98;1.40;;;;;;;19.85;100.00;101561.53;4957057;28;20038;-83
2022/08/30 09:36:52;;;;;;;2.40;1.50;;;;;;;19.95;100.00;101563.72;4991728;28;20042;-83
2022/08/30 09:39:26;;;;;;;1.80;1.40;;;;;;;19.87;100.00;101560.50;4992863;28;20069;-83
2022/08/30 09:41:53;;;;;;;2.75;1.63;;;;;;;19.88;100.00;101559.56;4959278;28;20130;-81
2022/08/30 09:44:23;;;;;;;1.90;1.70;;;;;;;20.01;100.00;101562.59;4973431;28;20051;-81
2022/08/30 09:46:58;;;;;;;2.85;1.63;;;;;;;20.08;100.00;101555.09;4972983;28;20054;-79
2022/08/30 09:49:29;;;;;;;2.35;1.95;;;;;;;20.25;100.00;101553.38;4987870;28;20049;-81
2022/08/30 09:52:15;;;;;;;2.95;2.45;;;;;;;20.07;100.00;101550.69;4958858;28;20045;-80
2022/08/30 09:55:22;;;;;;;4.15;2.03;;;;;;;19.91;100.00;101556.75;4981208;28;20090;-82
2022/08/30 09:57:56;;;;;;;2.33;2.00;;;;;;;20.13;100.00;101551.28;5002306;28;20483;-83
2022/08/30 10:00:30;;;;;;;2.33;2.13;;;;;;;20.17;95.65;101547.50;4978715;28;20483;-82
2022/08/30 10:03:18;;;;;;;2.78;2.08;;;;;;;20.11;95.08;101555.84;5007622;28;20422;-82
2022/08/30 10:06:13;;;;;;;2.53;2.33;;;;;;;20.09;96.68;101560.41;4974875;28;20053;-82
2022/08/30 10:09:19;;;;;;;3.50;2.78;;;;;;;19.90;98.82;101560.38;4981505;28;20459;-82
2022/08/30 10:12:05;;;;;;;2.70;2.38;;;;;;;19.95;97.40;101554.81;4969610;28;20050;-82
2022/08/30 10:14:34;;;;;;;3.20;2.72;;;;;;;19.82;100.00;101554.47;4979269;28;20410;-82
2022/08/30 10:17:08;;;;;;;3.95;2.78;;;;;;;19.74;100.00;101555.75;4983585;28;20419;-82
2022/08/30 10:19:48;;;;;;;3.08;2.78;;;;;;;19.66;100.00;101551.59;4974111;28;20073;-82
2022/08/30 10:22:18;;;;;;;3.22;2.70;;;;;;;19.63;100.00;101558.91;4981774;28;20381;-83
2022/08/30 10:25:00;;;;;;;3.38;2.83;;;;;;;19.62;100.00;101557.19;4973004;28;20057;-84
2022/08/30 10:27:35;;;;;;;3.35;2.40;;;;;;;19.60;100.00;101559.06;4972675;28;20052;-84
2022/08/30 10:30:12;;;;;;;2.42;2.22;;;;;;;19.47;100.00;101564.03;4990896;28;20046;-83
2022/08/30 10:33:02;;;;;;;2.83;2.50;;;;;;;19.41;100.00;101564.28;4971774;28;20043;-82
2022/08/30 10:35:34;;;;;;;4.00;2.67;;;;;;;19.61;100.00;101561.66;4970151;28;20049;-82
2022/08/30 10:38:36;;;;;;;2.58;2.22;;;;;;;19.58;100.00;101551.06;4957034;28;20480;-83
2022/08/30 10:41:18;;;;;;;3.05;2.40;;;;;;;19.58;100.00;101555.56;4954885;28;20047;-83
2022/08/30 10:43:57;;;;;;;5.10;2.10;;;;;;;19.48;100.00;101559.53;4984502;28;20042;-84
2022/08/30 10:46:47;;;;;;;1.60;1.50;;;;;;;19.47;100.00;101558.69;4964680;28;20040;-84
2022/08/30 10:49:27;;;;;;;2.92;1.70;;;;;;;19.46;100.00;101561.44;4954017;28;20039;-83
2022/08/30 10:52:11;;;;;;;3.28;1.88;;;;;;;19.40;100.00;101563.41;4951306;28;20047;-84
2022/08/30 10:54:47;;;;;;;1.75;1.52;;;;;;;19.51;100.00;101562.97;4954801;28;20046;-85
2022/08/30 10:57:13;;;;;;;2.72;1.67;;;;;;;19.62;100.00;101563.41;4968333;28;20046;-85
2022/08/30 10:59:45;;;;;;;1.67;1.45;;;;;;;19.69;100.00;101558.66;4938997;28;20053;-84
2022/08/30 11:02:38;;;;;;;2.30;1.25;;;;;;;19.49;97.03;101562.16;4979743;28;20122;-83
2022/08/30 11:05:16;;;;;;;1.92;1.33;;;;;;;19.63;100.00;101565.16;4985930;28;20053;-85
2022/08/30 11:08:07;;;;;;;1.77;1.48;;;;;;;19.82;100.00;101561.66;4969902;28;20440;-83
2022/08/30 11:11:31;;;;;;;2.40;1.40;;;;;;;19.93;100.00;101559.38;4946395;28;20058;-87
2022/08/30 11:14:01;;;;;;;1.60;1.23;;;;;;;20.24;98.38;101566.88;4960865;28;20043;-85
2022/08/30 11:16:38;;;;;;;2.47;1.42;;;;;;;20.45;96.46;101565.06;4950707;28;20050;-86
2022/08/30 11:19:12;;;;;;;;;;;;;;;20.42;97.37;101565.13;4974279;28;20495;-86
2022/08/30 11:21:41;;;;;;;2.10;1.45;;;;;;;20.45;100.00;101565.06;4976734;28;19945;-86
2022/08/30 11:24:27;;;;;;;2.17;1.40;;;;;;;20.22;94.90;101569.63;4976055;28;20046;-85
2022/08/30 11:26:57;;;;;;;0.95;0.95;;;;;;;19.99;99.20;101569.81;4960063;28;20464;-83
2022/08/30 11:29:33;;;;;;;2.20;1.45;;;;;;;19.89;100.00;101573.84;4980089;28;20042;-83
2022/08/30 11:32:12;;;;;;;1.45;1.35;;;;;;;19.35;100.00;101567.25;4967047;28;20038;-83
2022/08/30 11:34:48;;;;;;;1.75;1.25;;;;;;;19.07;100.00;101575.56;4963773;28;20049;-83
2022/08/30 11:37:41;;;;;;;2.17;1.30;;;;;;;19.03;100.00;101574.81;4973225;28;20093;-83